sensor_id;sensor_type;location;lat;lon;timestamp;temperature;humidity
12853;DHT22;6495;51.808;7.478;2023-03-13T00:01:34;9.90;99.90
12853;DHT22;6495;51.808;7.478;2023-03-13T00:04:05;10.00;99.90
12853;DHT22;6495;51.808;7.478;2023-03-13T00:06:35;10.00;99.90
12853;DHT22;6495;51.808;7.478;2023-03-13T00:09:10;10.00;99.90
12853;DHT22;6495;51.808;7.478;2023-03-13T00:11:40;10.00;99.90
12853;DHT22;6495;51.808;7.478;2023-03-13T00:14:09;10.00;99.90
12853;DHT22;6495;51.808;7.478;2023-03-13T00:16:38;10.00;99.90
12853;DHT22;6495;51.808;7.478;2023-03-13T00:19:09;10.00;99.90
12853;DHT22;6495;51.808;7.478;2023-03-13T00:21:37;10.00;99.90
12853;DHT22;6495;51.808;7.478;2023-03-13T00:24:09;10.00;99.90
12853;DHT22;6495;51.808;7.478;2023-03-13T00:26:38;10.00;99.90
12853;DHT22;6495;51.808;7.478;2023-03-13T00:29:06;10.00;99.90
12853;DHT22;6495;51.808;7.478;2023-03-13T00:31:35;10.00;99.90
12853;DHT22;6495;51.808;7.478;2023-03-13T00:34:04;10.00;99.90
12853;DHT22;6495;51.808;7.478;2023-03-13T00:36:35;10.00;99.90
12853;DHT22;6495;51.808;7.478;2023-03-13T00:39:08;10.00;99.90
12853;DHT22;6495;51.808;7.478;2023-03-13T00:41:37;10.00;99.90
12853;DHT22;6495;51.808;7.478;2023-03-13T00:44:06;10.00;99.90
12853;DHT22;6495;51.808;7.478;2023-03-13T00:46:35;10.00;99.90
12853;DHT22;6495;51.808;7.478;2023-03-13T00:49:04;10.00;99.90
12853;DHT22;6495;51.808;7.478;2023-03-13T00:51:34;10.00;99.90
12853;DHT22;6495;51.808;7.478;2023-03-13T00:54:03;10.00;99.90
12853;DHT22;6495;51.808;7.478;2023-03-13T00:56:32;10.00;99.90
12853;DHT22;6495;51.808;7.478;2023-03-13T00:59:00;9.90;99.90
12853;DHT22;6495;51.808;7.478;2023-03-13T01:01:31;9.90;99.90
12853;DHT22;6495;51.808;7.478;2023-03-13T01:04:02;9.90;99.90
12853;DHT22;6495;51.808;7.478;2023-03-13T01:06:35;9.90;99.90
12853;DHT22;6495;51.808;7.478;2023-03-13T01:09:08;9.90;99.90
12853;DHT22;6495;51.808;7.478;2023-03-13T01:11:39;9.90;99.90
12853;DHT22;6495;51.808;7.478;2023-03-13T01:14:11;9.80;99.90
12853;DHT22;6495;51.808;7.478;2023-03-13T01:16:41;9.80;99.90
12853;DHT22;6495;51.808;7.478;2023-03-13T01:19:12;9.80;99.90
12853;DHT22;6495;51.808;7.478;2023-03-13T01:21:45;9.80;99.90
12853;DHT22;6495;51.808;7.478;2023-03-13T01:24:14;9.70;99.90
12853;DHT22;6495;51.808;7.478;2023-03-13T01:26:45;9.70;99.90
12853;DHT22;6495;51.808;7.478;2023-03-13T01:29:15;9.70;99.90
12853;DHT22;6495;51.808;7.478;2023-03-13T01:31:43;9.70;99.90
12853;DHT22;6495;51.808;7.478;2023-03-13T01:34:12;9.70;99.90
12853;DHT22;6495;51.808;7.478;2023-03-13T01:36:40;9.70;99.90
12853;DHT22;6495;51.808;7.478;2023-03-13T01:39:10;9.60;99.90
12853;DHT22;6495;51.808;7.478;2023-03-13T01:41:39;9.60;99.90
12853;DHT22;6495;51.808;7.478;2023-03-13T01:44:19;9.60;99.90
12853;DHT22;6495;51.808;7.478;2023-03-13T01:46:51;9.50;99.90
12853;DHT22;6495;51.808;7.478;2023-03-13T01:49:22;9.50;99.90
12853;DHT22;6495;51.808;7.478;2023-03-13T01:52:22;9.50;99.90
12853;DHT22;6495;51.808;7.478;2023-03-13T01:55:08;9.40;99.90
12853;DHT22;6495;51.808;7.478;2023-03-13T01:57:44;9.40;99.90
12853;DHT22;6495;51.808;7.478;2023-03-13T02:00:20;9.40;99.90
12853;DHT22;6495;51.808;7.478;2023-03-13T02:02:54;9.40;99.90
12853;DHT22;6495;51.808;7.478;2023-03-13T02:05:27;9.40;99.90
12853;DHT22;6495;51.808;7.478;2023-03-13T02:08:00;9.40;99.90
12853;DHT22;6495;51.808;7.478;2023-03-13T02:10:40;9.30;99.90
12853;DHT22;6495;51.808;7.478;2023-03-13T02:13:17;9.30;99.90
12853;DHT22;6495;51.808;7.478;2023-03-13T02:15:47;9.30;99.90
12853;DHT22;6495;51.808;7.478;2023-03-13T02:18:16;9.30;99.90
12853;DHT22;6495;51.808;7.478;2023-03-13T02:20:46;9.20;99.90
12853;DHT22;6495;51.808;7.478;2023-03-13T02:23:23;9.20;99.90
12853;DHT22;6495;51.808;7.478;2023-03-13T02:25:59;9.20;99.90
12853;DHT22;6495;51.808;7.478;2023-03-13T02:28:34;9.20;99.90
12853;DHT22;6495;51.808;7.478;2023-03-13T02:31:09;9.20;99.90
12853;DHT22;6495;51.808;7.478;2023-03-13T02:33:40;9.10;99.90
12853;DHT22;6495;51.808;7.478;2023-03-13T02:36:15;9.10;99.90
12853;DHT22;6495;51.808;7.478;2023-03-13T02:38:50;9.10;99.90
12853;DHT22;6495;51.808;7.478;2023-03-13T02:41:26;9.10;99.90
12853;DHT22;6495;51.808;7.478;2023-03-13T02:43:57;9.10;99.90
12853;DHT22;6495;51.808;7.478;2023-03-13T02:46:26;9.00;99.90
12853;DHT22;6495;51.808;7.478;2023-03-13T02:48:55;9.10;99.90
12853;DHT22;6495;51.808;7.478;2023-03-13T02:51:29;9.00;99.90
12853;DHT22;6495;51.808;7.478;2023-03-13T02:54:03;9.00;99.90
12853;DHT22;6495;51.808;7.478;2023-03-13T02:56:36;9.00;99.90
12853;DHT22;6495;51.808;7.478;2023-03-13T02:59:09;9.00;99.90
12853;DHT22;6495;51.808;7.478;2023-03-13T03:01:41;9.00;99.90
12853;DHT22;6495;51.808;7.478;2023-03-13T03:04:10;9.00;99.90
12853;DHT22;6495;51.808;7.478;2023-03-13T03:06:39;9.00;99.90
12853;DHT22;6495;51.808;7.478;2023-03-13T03:09:07;9.10;99.90
12853;DHT22;6495;51.808;7.478;2023-03-13T03:11:37;9.10;99.90
12853;DHT22;6495;51.808;7.478;2023-03-13T03:14:11;9.10;99.90
12853;DHT22;6495;51.808;7.478;2023-03-13T03:16:43;9.10;99.90
12853;DHT22;6495;51.808;7.478;2023-03-13T03:19:12;9.10;99.90
12853;DHT22;6495;51.808;7.478;2023-03-13T03:21:41;9.10;99.90
12853;DHT22;6495;51.808;7.478;2023-03-13T03:24:09;9.10;99.90
12853;DHT22;6495;51.808;7.478;2023-03-13T03:26:39;9.20;99.90
12853;DHT22;6495;51.808;7.478;2023-03-13T03:29:14;9.20;99.90
12853;DHT22;6495;51.808;7.478;2023-03-13T03:31:46;9.20;99.90
12853;DHT22;6495;51.808;7.478;2023-03-13T03:34:15;9.20;99.90
12853;DHT22;6495;51.808;7.478;2023-03-13T03:36:44;9.20;99.90
12853;DHT22;6495;51.808;7.478;2023-03-13T03:39:13;9.20;99.90
12853;DHT22;6495;51.808;7.478;2023-03-13T03:41:43;9.20;99.90
12853;DHT22;6495;51.808;7.478;2023-03-13T03:44:12;9.20;99.90
12853;DHT22;6495;51.808;7.478;2023-03-13T03:46:55;9.20;99.90
12853;DHT22;6495;51.808;7.478;2023-03-13T03:49:26;9.30;99.90
12853;DHT22;6495;51.808;7.478;2023-03-13T03:51:54;9.30;99.90
12853;DHT22;6495;51.808;7.478;2023-03-13T03:54:29;9.30;99.90
12853;DHT22;6495;51.808;7.478;2023-03-13T03:57:00;9.40;99.90
12853;DHT22;6495;51.808;7.478;2023-03-13T03:59:31;9.40;99.90
12853;DHT22;6495;51.808;7.478;2023-03-13T04:02:05;9.40;99.90
12853;DHT22;6495;51.808;7.478;2023-03-13T04:04:35;9.40;99.90
12853;DHT22;6495;51.808;7.478;2023-03-13T04:07:20;9.50;99.90
12853;DHT22;6495;51.808;7.478;2023-03-13T04:09:52;9.50;99.90
12853;DHT22;6495;51.808;7.478;2023-03-13T04:12:28;9.50;99.90
12853;DHT22;6495;51.808;7.478;2023-03-13T04:14:57;9.50;99.90
12853;DHT22;6495;51.808;7.478;2023-03-13T04:17:32;9.60;99.90
12853;DHT22;6495;51.808;7.478;2023-03-13T04:20:10;9.60;99.90
12853;DHT22;6495;51.808;7.478;2023-03-13T04:22:40;9.60;99.90
12853;DHT22;6495;51.808;7.478;2023-03-13T04:25:09;9.70;99.90
12853;DHT22;6495;51.808;7.478;2023-03-13T04:27:40;9.70;99.90
12853;DHT22;6495;51.808;7.478;2023-03-13T04:30:10;9.70;99.90
12853;DHT22;6495;51.808;7.478;2023-03-13T04:33:10;9.70;99.90
12853;DHT22;6495;51.808;7.478;2023-03-13T04:36:01;9.80;99.90
12853;DHT22;6495;51.808;7.478;2023-03-13T04:38:52;9.80;99.90
12853;DHT22;6495;51.808;7.478;2023-03-13T04:41:35;9.80;99.90
12853;DHT22;6495;51.808;7.478;2023-03-13T04:44:19;9.90;99.90
12853;DHT22;6495;51.808;7.478;2023-03-13T04:47:17;9.90;99.90
12853;DHT22;6495;51.808;7.478;2023-03-13T04:50:00;9.90;99.90
12853;DHT22;6495;51.808;7.478;2023-03-13T04:52:46;9.90;99.90
12853;DHT22;6495;51.808;7.478;2023-03-13T04:55:55;9.90;99.90
12853;DHT22;6495;51.808;7.478;2023-03-13T04:58:47;10.00;99.90
12853;DHT22;6495;51.808;7.478;2023-03-13T05:01:50;10.00;99.90
12853;DHT22;6495;51.808;7.478;2023-03-13T05:04:37;10.00;99.90
12853;DHT22;6495;51.808;7.478;2023-03-13T05:07:23;10.10;99.90
12853;DHT22;6495;51.808;7.478;2023-03-13T05:10:25;10.10;99.90
12853;DHT22;6495;51.808;7.478;2023-03-13T05:13:15;10.10;99.90
12853;DHT22;6495;51.808;7.478;2023-03-13T05:16:03;10.20;99.90
12853;DHT22;6495;51.808;7.478;2023-03-13T05:18:53;10.20;99.90
12853;DHT22;6495;51.808;7.478;2023-03-13T05:21:59;10.20;99.90
12853;DHT22;6495;51.808;7.478;2023-03-13T05:24:35;10.20;99.90
12853;DHT22;6495;51.808;7.478;2023-03-13T05:27:29;10.30;99.90
12853;DHT22;6495;51.808;7.478;2023-03-13T05:30:12;10.30;99.90
12853;DHT22;6495;51.808;7.478;2023-03-13T05:32:56;10.30;99.90
12853;DHT22;6495;51.808;7.478;2023-03-13T05:35:42;10.40;99.90
12853;DHT22;6495;51.808;7.478;2023-03-13T05:38:32;10.40;99.90
12853;DHT22;6495;51.808;7.478;2023-03-13T05:41:19;10.40;99.90
12853;DHT22;6495;51.808;7.478;2023-03-13T05:44:19;10.40;99.90
12853;DHT22;6495;51.808;7.478;2023-03-13T05:47:04;10.50;99.90
12853;DHT22;6495;51.808;7.478;2023-03-13T05:49:48;10.50;99.90
12853;DHT22;6495;51.808;7.478;2023-03-13T05:52:35;10.50;99.90
12853;DHT22;6495;51.808;7.478;2023-03-13T05:55:16;10.50;99.90
12853;DHT22;6495;51.808;7.478;2023-03-13T05:58:05;10.50;99.90
12853;DHT22;6495;51.808;7.478;2023-03-13T06:01:07;10.60;99.90
12853;DHT22;6495;51.808;7.478;2023-03-13T06:03:47;10.60;99.90
12853;DHT22;6495;51.808;7.478;2023-03-13T06:06:17;10.70;99.90
12853;DHT22;6495;51.808;7.478;2023-03-13T06:08:52;10.70;99.90
12853;DHT22;6495;51.808;7.478;2023-03-13T06:11:22;10.70;99.90
12853;DHT22;6495;51.808;7.478;2023-03-13T06:13:51;10.70;99.90
12853;DHT22;6495;51.808;7.478;2023-03-13T06:16:28;10.80;99.90
12853;DHT22;6495;51.808;7.478;2023-03-13T06:19:10;10.70;99.90
12853;DHT22;6495;51.808;7.478;2023-03-13T06:21:39;10.80;99.90
12853;DHT22;6495;51.808;7.478;2023-03-13T06:24:08;10.90;99.90
12853;DHT22;6495;51.808;7.478;2023-03-13T06:26:37;10.90;99.90
12853;DHT22;6495;51.808;7.478;2023-03-13T06:29:05;10.90;99.90
12853;DHT22;6495;51.808;7.478;2023-03-13T06:31:34;11.00;99.90
12853;DHT22;6495;51.808;7.478;2023-03-13T06:34:02;11.00;99.90
12853;DHT22;6495;51.808;7.478;2023-03-13T06:36:30;11.00;99.90
12853;DHT22;6495;51.808;7.478;2023-03-13T06:38:58;11.00;99.90
12853;DHT22;6495;51.808;7.478;2023-03-13T06:41:28;11.00;99.90
12853;DHT22;6495;51.808;7.478;2023-03-13T06:43:56;11.10;99.90
12853;DHT22;6495;51.808;7.478;2023-03-13T06:46:24;11.10;99.90
12853;DHT22;6495;51.808;7.478;2023-03-13T06:48:53;11.20;99.90
12853;DHT22;6495;51.808;7.478;2023-03-13T06:51:21;11.20;99.90
12853;DHT22;6495;51.808;7.478;2023-03-13T06:53:49;11.30;99.90
12853;DHT22;6495;51.808;7.478;2023-03-13T06:56:18;11.30;99.90
12853;DHT22;6495;51.808;7.478;2023-03-13T06:58:49;11.30;99.90
12853;DHT22;6495;51.808;7.478;2023-03-13T07:01:17;11.40;99.90
12853;DHT22;6495;51.808;7.478;2023-03-13T07:03:47;11.40;99.90
12853;DHT22;6495;51.808;7.478;2023-03-13T07:06:15;11.40;99.90
12853;DHT22;6495;51.808;7.478;2023-03-13T07:08:44;11.40;99.90
12853;DHT22;6495;51.808;7.478;2023-03-13T07:11:13;11.50;99.90
12853;DHT22;6495;51.808;7.478;2023-03-13T07:13:43;11.50;99.90
12853;DHT22;6495;51.808;7.478;2023-03-13T07:16:12;11.50;99.90
12853;DHT22;6495;51.808;7.478;2023-03-13T07:18:41;11.50;99.90
12853;DHT22;6495;51.808;7.478;2023-03-13T07:21:11;11.60;99.90
12853;DHT22;6495;51.808;7.478;2023-03-13T07:23:39;11.60;99.90
12853;DHT22;6495;51.808;7.478;2023-03-13T07:26:11;11.60;99.90
12853;DHT22;6495;51.808;7.478;2023-03-13T07:28:41;11.70;99.90
12853;DHT22;6495;51.808;7.478;2023-03-13T07:31:13;11.70;99.90
12853;DHT22;6495;51.808;7.478;2023-03-13T07:33:43;11.70;99.90
12853;DHT22;6495;51.808;7.478;2023-03-13T07:36:13;11.80;99.90
12853;DHT22;6495;51.808;7.478;2023-03-13T07:38:45;11.80;99.90
12853;DHT22;6495;51.808;7.478;2023-03-13T07:41:14;11.80;99.90
12853;DHT22;6495;51.808;7.478;2023-03-13T07:43:45;11.80;99.90
12853;DHT22;6495;51.808;7.478;2023-03-13T07:46:17;11.90;99.90
12853;DHT22;6495;51.808;7.478;2023-03-13T07:48:47;11.90;99.90
12853;DHT22;6495;51.808;7.478;2023-03-13T07:51:17;12.00;99.90
12853;DHT22;6495;51.808;7.478;2023-03-13T07:54:02;12.00;99.90
12853;DHT22;6495;51.808;7.478;2023-03-13T07:56:31;12.00;99.90
12853;DHT22;6495;51.808;7.478;2023-03-13T07:58:59;12.00;99.90
12853;DHT22;6495;51.808;7.478;2023-03-13T08:01:29;12.10;99.90
12853;DHT22;6495;51.808;7.478;2023-03-13T08:03:57;12.10;99.90
12853;DHT22;6495;51.808;7.478;2023-03-13T08:06:29;12.20;99.90
12853;DHT22;6495;51.808;7.478;2023-03-13T08:09:01;12.20;99.90
12853;DHT22;6495;51.808;7.478;2023-03-13T08:11:29;12.20;99.90
12853;DHT22;6495;51.808;7.478;2023-03-13T08:13:58;12.20;99.90
12853;DHT22;6495;51.808;7.478;2023-03-13T08:16:29;12.30;99.90
12853;DHT22;6495;51.808;7.478;2023-03-13T08:19:01;12.30;99.90
12853;DHT22;6495;51.808;7.478;2023-03-13T08:21:33;12.30;99.90
12853;DHT22;6495;51.808;7.478;2023-03-13T08:24:04;12.30;99.90
12853;DHT22;6495;51.808;7.478;2023-03-13T08:26:36;12.40;99.90
12853;DHT22;6495;51.808;7.478;2023-03-13T08:29:08;12.40;99.90
12853;DHT22;6495;51.808;7.478;2023-03-13T08:31:42;12.40;99.90
12853;DHT22;6495;51.808;7.478;2023-03-13T08:34:12;12.40;99.90
12853;DHT22;6495;51.808;7.478;2023-03-13T08:36:41;12.40;99.90
12853;DHT22;6495;51.808;7.478;2023-03-13T08:39:14;12.40;99.90
12853;DHT22;6495;51.808;7.478;2023-03-13T08:41:43;12.50;99.90
12853;DHT22;6495;51.808;7.478;2023-03-13T08:44:13;12.50;99.90
12853;DHT22;6495;51.808;7.478;2023-03-13T08:46:44;12.50;99.90
12853;DHT22;6495;51.808;7.478;2023-03-13T08:49:13;12.50;99.90
12853;DHT22;6495;51.808;7.478;2023-03-13T08:51:43;12.50;99.90
12853;DHT22;6495;51.808;7.478;2023-03-13T08:54:11;12.50;99.90
12853;DHT22;6495;51.808;7.478;2023-03-13T08:56:40;12.50;99.90
12853;DHT22;6495;51.808;7.478;2023-03-13T08:59:09;12.50;99.90
12853;DHT22;6495;51.808;7.478;2023-03-13T09:01:38;12.60;99.90
12853;DHT22;6495;51.808;7.478;2023-03-13T09:04:08;12.60;99.90
12853;DHT22;6495;51.808;7.478;2023-03-13T09:06:37;12.60;99.90
12853;DHT22;6495;51.808;7.478;2023-03-13T09:09:06;12.60;99.90
12853;DHT22;6495;51.808;7.478;2023-03-13T09:11:36;12.60;99.90
12853;DHT22;6495;51.808;7.478;2023-03-13T09:14:05;12.60;99.90
12853;DHT22;6495;51.808;7.478;2023-03-13T09:16:35;12.70;99.90
12853;DHT22;6495;51.808;7.478;2023-03-13T09:19:03;12.70;99.90
12853;DHT22;6495;51.808;7.478;2023-03-13T09:21:35;12.70;99.90
12853;DHT22;6495;51.808;7.478;2023-03-13T09:24:03;12.70;99.90
12853;DHT22;6495;51.808;7.478;2023-03-13T09:26:32;12.80;99.90
12853;DHT22;6495;51.808;7.478;2023-03-13T09:29:00;12.90;99.90
12853;DHT22;6495;51.808;7.478;2023-03-13T09:31:30;12.90;99.90
12853;DHT22;6495;51.808;7.478;2023-03-13T09:34:00;13.00;99.90
12853;DHT22;6495;51.808;7.478;2023-03-13T09:36:29;13.10;99.90
12853;DHT22;6495;51.808;7.478;2023-03-13T09:38:59;13.10;99.90
12853;DHT22;6495;51.808;7.478;2023-03-13T09:41:33;13.20;99.90
12853;DHT22;6495;51.808;7.478;2023-03-13T09:44:10;13.30;99.90
12853;DHT22;6495;51.808;7.478;2023-03-13T09:46:53;13.40;99.90
12853;DHT22;6495;51.808;7.478;2023-03-13T09:49:32;13.40;99.90
12853;DHT22;6495;51.808;7.478;2023-03-13T09:52:12;13.50;99.90
12853;DHT22;6495;51.808;7.478;2023-03-13T09:54:49;13.60;99.90
12853;DHT22;6495;51.808;7.478;2023-03-13T09:57:27;13.60;99.90
12853;DHT22;6495;51.808;7.478;2023-03-13T10:00:05;13.70;99.90
12853;DHT22;6495;51.808;7.478;2023-03-13T10:02:39;13.70;99.90
12853;DHT22;6495;51.808;7.478;2023-03-13T10:05:14;13.70;99.90
12853;DHT22;6495;51.808;7.478;2023-03-13T10:07:47;13.80;99.90
12853;DHT22;6495;51.808;7.478;2023-03-13T10:10:20;13.80;99.90
12853;DHT22;6495;51.808;7.478;2023-03-13T10:12:57;13.80;99.90
12853;DHT22;6495;51.808;7.478;2023-03-13T10:15:34;13.90;99.90
12853;DHT22;6495;51.808;7.478;2023-03-13T10:18:13;13.90;99.90
12853;DHT22;6495;51.808;7.478;2023-03-13T10:20:47;13.90;99.90
12853;DHT22;6495;51.808;7.478;2023-03-13T10:23:29;14.00;99.90
12853;DHT22;6495;51.808;7.478;2023-03-13T10:26:10;14.00;99.90
12853;DHT22;6495;51.808;7.478;2023-03-13T10:28:43;14.10;99.90
12853;DHT22;6495;51.808;7.478;2023-03-13T10:31:16;14.10;99.90
12853;DHT22;6495;51.808;7.478;2023-03-13T10:33:50;14.20;99.90
12853;DHT22;6495;51.808;7.478;2023-03-13T10:36:18;14.20;99.90
12853;DHT22;6495;51.808;7.478;2023-03-13T10:38:49;14.30;99.90
12853;DHT22;6495;51.808;7.478;2023-03-13T10:41:25;14.40;99.90
12853;DHT22;6495;51.808;7.478;2023-03-13T10:43:59;14.50;99.90
12853;DHT22;6495;51.808;7.478;2023-03-13T10:46:33;14.60;99.90
12853;DHT22;6495;51.808;7.478;2023-03-13T10:49:14;14.60;99.90
12853;DHT22;6495;51.808;7.478;2023-03-13T10:51:47;14.60;99.90
12853;DHT22;6495;51.808;7.478;2023-03-13T10:54:22;14.70;99.90
12853;DHT22;6495;51.808;7.478;2023-03-13T10:57:16;14.70;99.90
12853;DHT22;6495;51.808;7.478;2023-03-13T10:59:53;14.70;99.90
12853;DHT22;6495;51.808;7.478;2023-03-13T11:02:31;14.80;99.90
12853;DHT22;6495;51.808;7.478;2023-03-13T11:05:01;14.90;99.90
12853;DHT22;6495;51.808;7.478;2023-03-13T11:07:51;15.00;99.90
12853;DHT22;6495;51.808;7.478;2023-03-13T11:10:22;15.10;99.90
12853;DHT22;6495;51.808;7.478;2023-03-13T11:12:54;15.20;99.90
12853;DHT22;6495;51.808;7.478;2023-03-13T11:15:30;15.30;99.90
12853;DHT22;6495;51.808;7.478;2023-03-13T11:18:20;15.40;99.90
12853;DHT22;6495;51.808;7.478;2023-03-13T11:20:53;15.50;99.90
12853;DHT22;6495;51.808;7.478;2023-03-13T11:23:45;15.60;99.90
12853;DHT22;6495;51.808;7.478;2023-03-13T11:26:22;15.70;99.90
12853;DHT22;6495;51.808;7.478;2023-03-13T11:29:05;15.80;99.90
12853;DHT22;6495;51.808;7.478;2023-03-13T11:31:45;15.90;99.90
12853;DHT22;6495;51.808;7.478;2023-03-13T11:34:21;16.00;99.90
12853;DHT22;6495;51.808;7.478;2023-03-13T11:36:58;16.10;99.90
12853;DHT22;6495;51.808;7.478;2023-03-13T11:39:46;16.10;99.90
12853;DHT22;6495;51.808;7.478;2023-03-13T11:46:07;16.20;99.90
12853;DHT22;6495;51.808;7.478;2023-03-13T11:52:19;16.20;99.90
12853;DHT22;6495;51.808;7.478;2023-03-13T11:55:19;16.30;99.90
12853;DHT22;6495;51.808;7.478;2023-03-13T11:58:15;16.30;99.90
12853;DHT22;6495;51.808;7.478;2023-03-13T12:01:02;16.40;99.90
12853;DHT22;6495;51.808;7.478;2023-03-13T12:03:37;16.40;99.90
12853;DHT22;6495;51.808;7.478;2023-03-13T12:06:18;16.40;99.90
12853;DHT22;6495;51.808;7.478;2023-03-13T12:08:57;16.50;99.90
12853;DHT22;6495;51.808;7.478;2023-03-13T12:11:34;16.50;99.90
12853;DHT22;6495;51.808;7.478;2023-03-13T12:14:12;16.60;99.90
12853;DHT22;6495;51.808;7.478;2023-03-13T12:16:48;16.60;99.90
12853;DHT22;6495;51.808;7.478;2023-03-13T12:19:25;16.70;99.90
12853;DHT22;6495;51.808;7.478;2023-03-13T12:22:01;16.80;99.90
12853;DHT22;6495;51.808;7.478;2023-03-13T12:24:43;16.80;99.90
12853;DHT22;6495;51.808;7.478;2023-03-13T12:27:18;16.80;99.90
12853;DHT22;6495;51.808;7.478;2023-03-13T12:29:57;16.90;99.90
12853;DHT22;6495;51.808;7.478;2023-03-13T12:32:34;17.00;99.90
12853;DHT22;6495;51.808;7.478;2023-03-13T12:35:12;17.00;99.90
12853;DHT22;6495;51.808;7.478;2023-03-13T12:37:51;17.00;99.90
12853;DHT22;6495;51.808;7.478;2023-03-13T12:40:26;17.00;99.90
12853;DHT22;6495;51.808;7.478;2023-03-13T12:43:03;16.90;99.90
12853;DHT22;6495;51.808;7.478;2023-03-13T12:45:44;16.90;99.90
12853;DHT22;6495;51.808;7.478;2023-03-13T12:48:41;17.00;99.90
12853;DHT22;6495;51.808;7.478;2023-03-13T12:51:29;17.00;99.90
12853;DHT22;6495;51.808;7.478;2023-03-13T12:54:21;16.90;99.90
12853;DHT22;6495;51.808;7.478;2023-03-13T12:57:15;16.90;99.90
12853;DHT22;6495;51.808;7.478;2023-03-13T12:59:53;16.90;99.90
12853;DHT22;6495;51.808;7.478;2023-03-13T13:02:27;16.90;99.90
12853;DHT22;6495;51.808;7.478;2023-03-13T13:05:00;16.90;99.90
12853;DHT22;6495;51.808;7.478;2023-03-13T13:07:31;16.90;99.90
12853;DHT22;6495;51.808;7.478;2023-03-13T13:10:12;16.90;99.90
12853;DHT22;6495;51.808;7.478;2023-03-13T13:12:45;16.90;99.90
12853;DHT22;6495;51.808;7.478;2023-03-13T13:15:20;16.90;99.90
12853;DHT22;6495;51.808;7.478;2023-03-13T13:18:00;16.90;99.90
12853;DHT22;6495;51.808;7.478;2023-03-13T13:20:45;16.90;99.90
12853;DHT22;6495;51.808;7.478;2023-03-13T13:23:22;16.90;99.90
12853;DHT22;6495;51.808;7.478;2023-03-13T13:25:54;16.90;99.90
12853;DHT22;6495;51.808;7.478;2023-03-13T13:28:33;16.90;99.90
12853;DHT22;6495;51.808;7.478;2023-03-13T13:31:43;16.80;99.90
12853;DHT22;6495;51.808;7.478;2023-03-13T13:34:53;16.80;99.90
12853;DHT22;6495;51.808;7.478;2023-03-13T13:37:25;16.80;99.90
12853;DHT22;6495;51.808;7.478;2023-03-13T13:40:17;16.80;99.90
12853;DHT22;6495;51.808;7.478;2023-03-13T13:42:49;16.80;99.90
12853;DHT22;6495;51.808;7.478;2023-03-13T13:45:30;16.80;99.90
12853;DHT22;6495;51.808;7.478;2023-03-13T13:48:14;16.80;99.90
12853;DHT22;6495;51.808;7.478;2023-03-13T13:54:04;16.80;99.90
12853;DHT22;6495;51.808;7.478;2023-03-13T13:57:06;16.80;99.90
12853;DHT22;6495;51.808;7.478;2023-03-13T13:59:39;16.80;99.90
12853;DHT22;6495;51.808;7.478;2023-03-13T14:02:23;16.80;99.90
12853;DHT22;6495;51.808;7.478;2023-03-13T14:05:01;16.80;99.90
12853;DHT22;6495;51.808;7.478;2023-03-13T14:10:37;16.80;99.90
12853;DHT22;6495;51.808;7.478;2023-03-13T14:13:12;16.80;99.90
12853;DHT22;6495;51.808;7.478;2023-03-13T14:15:44;16.70;99.90
12853;DHT22;6495;51.808;7.478;2023-03-13T14:18:20;16.70;99.90
12853;DHT22;6495;51.808;7.478;2023-03-13T14:21:00;16.70;99.90
12853;DHT22;6495;51.808;7.478;2023-03-13T14:23:33;16.70;99.90
12853;DHT22;6495;51.808;7.478;2023-03-13T14:26:12;16.70;99.90
12853;DHT22;6495;51.808;7.478;2023-03-13T14:28:45;16.70;99.90
12853;DHT22;6495;51.808;7.478;2023-03-13T14:31:26;16.60;99.90
12853;DHT22;6495;51.808;7.478;2023-03-13T14:33:57;16.60;99.90
12853;DHT22;6495;51.808;7.478;2023-03-13T14:36:26;16.60;99.90
12853;DHT22;6495;51.808;7.478;2023-03-13T14:38:56;16.60;99.90
12853;DHT22;6495;51.808;7.478;2023-03-13T14:41:29;16.60;99.90
12853;DHT22;6495;51.808;7.478;2023-03-13T14:44:04;16.60;99.90
12853;DHT22;6495;51.808;7.478;2023-03-13T14:46:35;16.60;99.90
12853;DHT22;6495;51.808;7.478;2023-03-13T14:49:14;16.50;99.90
12853;DHT22;6495;51.808;7.478;2023-03-13T14:51:45;16.50;99.90
12853;DHT22;6495;51.808;7.478;2023-03-13T14:54:27;16.50;99.90
12853;DHT22;6495;51.808;7.478;2023-03-13T14:57:04;16.50;99.90
12853;DHT22;6495;51.808;7.478;2023-03-13T14:59:41;16.50;99.90
12853;DHT22;6495;51.808;7.478;2023-03-13T15:02:14;16.50;99.90
12853;DHT22;6495;51.808;7.478;2023-03-13T15:04:54;16.50;99.90
12853;DHT22;6495;51.808;7.478;2023-03-13T15:07:26;16.50;99.90
12853;DHT22;6495;51.808;7.478;2023-03-13T15:10:17;16.60;99.90
12853;DHT22;6495;51.808;7.478;2023-03-13T15:12:49;16.50;99.90
12853;DHT22;6495;51.808;7.478;2023-03-13T15:15:18;16.50;99.90
12853;DHT22;6495;51.808;7.478;2023-03-13T15:17:47;16.50;99.90
12853;DHT22;6495;51.808;7.478;2023-03-13T15:20:16;16.40;99.90
12853;DHT22;6495;51.808;7.478;2023-03-13T15:22:45;16.40;99.90
12853;DHT22;6495;51.808;7.478;2023-03-13T15:25:15;16.40;99.90
12853;DHT22;6495;51.808;7.478;2023-03-13T15:27:47;16.40;99.90
12853;DHT22;6495;51.808;7.478;2023-03-13T15:30:18;16.40;99.90
12853;DHT22;6495;51.808;7.478;2023-03-13T15:32:49;16.40;99.90
12853;DHT22;6495;51.808;7.478;2023-03-13T15:35:24;16.40;99.90
12853;DHT22;6495;51.808;7.478;2023-03-13T15:37:54;16.40;99.90
12853;DHT22;6495;51.808;7.478;2023-03-13T15:40:23;16.40;99.90
12853;DHT22;6495;51.808;7.478;2023-03-13T15:42:54;16.40;99.90
12853;DHT22;6495;51.808;7.478;2023-03-13T15:45:23;16.40;99.90
12853;DHT22;6495;51.808;7.478;2023-03-13T15:47:52;16.40;99.90
12853;DHT22;6495;51.808;7.478;2023-03-13T15:50:21;16.40;99.90
12853;DHT22;6495;51.808;7.478;2023-03-13T15:52:55;16.40;99.90
12853;DHT22;6495;51.808;7.478;2023-03-13T15:55:24;16.40;99.90
12853;DHT22;6495;51.808;7.478;2023-03-13T15:57:55;16.40;99.90
12853;DHT22;6495;51.808;7.478;2023-03-13T16:00:25;16.50;99.90
12853;DHT22;6495;51.808;7.478;2023-03-13T16:02:54;16.50;99.90
12853;DHT22;6495;51.808;7.478;2023-03-13T16:05:22;16.50;99.90
12853;DHT22;6495;51.808;7.478;2023-03-13T16:07:50;16.60;99.90
12853;DHT22;6495;51.808;7.478;2023-03-13T16:10:47;16.60;99.90
12853;DHT22;6495;51.808;7.478;2023-03-13T16:13:20;16.60;99.90
12853;DHT22;6495;51.808;7.478;2023-03-13T16:16:20;16.60;99.90
12853;DHT22;6495;51.808;7.478;2023-03-13T16:19:09;16.50;99.90
12853;DHT22;6495;51.808;7.478;2023-03-13T16:21:39;16.50;99.90
12853;DHT22;6495;51.808;7.478;2023-03-13T16:24:23;16.50;99.90
12853;DHT22;6495;51.808;7.478;2023-03-13T16:27:46;16.50;99.90
12853;DHT22;6495;51.808;7.478;2023-03-13T16:30:18;16.50;99.90
12853;DHT22;6495;51.808;7.478;2023-03-13T16:32:50;16.50;99.90
12853;DHT22;6495;51.808;7.478;2023-03-13T16:35:18;16.50;99.90
12853;DHT22;6495;51.808;7.478;2023-03-13T16:37:47;16.50;99.90
12853;DHT22;6495;51.808;7.478;2023-03-13T16:40:18;16.50;99.90
12853;DHT22;6495;51.808;7.478;2023-03-13T16:42:47;16.40;99.90
12853;DHT22;6495;51.808;7.478;2023-03-13T16:45:18;16.40;99.90
12853;DHT22;6495;51.808;7.478;2023-03-13T16:47:47;16.40;99.90
12853;DHT22;6495;51.808;7.478;2023-03-13T16:50:23;16.40;99.90
12853;DHT22;6495;51.808;7.478;2023-03-13T16:52:53;16.40;99.90
12853;DHT22;6495;51.808;7.478;2023-03-13T16:55:22;16.40;99.90